Norse Mersey — IBEN — position and weather

sailwx.info

Track history (hours):
 
Tides and Currents Weather Stations Pressure Air Temp Water Temp Dewpoint Dewpoint Depression Visibility Wind Speed Wind Dir Waves Ship Positions

Norse Mersey

Operator: Norse Merchant Ferries

Last reported at 2020-Jan-21 13:00 UTC. Time now 2020-Jan-21 23:09 UTC.
Position N 43°35' E 010°19'.

Length 175 m; draft 5.6 m.

Type: Ship (hazmat cat A). MMSI: 247026000.

Date/timePositionNaut miles runAvg speedWind from/ knotsBaromVisibWave heightAir tempDewpointWater temp
2020-Jan-21 13:00N 43°35' E 010°19'0 0.0
2020-Jan-21 11:30N 43°35' E 010°19'0 0.0
2020-Jan-21 10:30N 43°35' E 010°19'24 3.7
2020-Jan-21 04:00N 43°11' E 010°19'25011.2
2020-Jan-20 05:34N 39°04' E 009°21'113.2
2020-Jan-20 05:30N 39°05' E 009°20'713.2
2020-Jan-20 05:01N 39°08' E 009°12'7 1.9
2020-Jan-20 01:23N 39°13' E 009°06'6 1.3
2020-Jan-19 21:00N 39°08' E 009°11'227 7.8
2020-Jan-18 16:01N 40°49' E 013°36'714.8
2020-Jan-18 15:30N 40°44' E 013°43'714.9
2020-Jan-18 15:00N 40°39' E 013°51'2214.5
2020-Jan-18 13:30N 40°31' E 014°17'19 2.6
2020-Jan-18 06:09N 40°37' E 014°41'215.0
2020-Jan-18 06:00N 40°35' E 014°39'3015.0
2020-Jan-18 04:00N 40°23' E 014°02'23514.2
2020-Jan-17 11:29N 39°07' E 009°14'8 1.2
2020-Jan-17 04:38N 39°13' E 009°06'0 1.6
2020-Jan-17 04:31N 39°12' E 009°06'2 4.7
2020-Jan-17 04:00N 39°10' E 009°07'24213.1
2020-Jan-16 09:30N 43°08' E 010°04'1515.0
2020-Jan-16 08:30N 43°22' E 010°10'14 3.5
2020-Jan-16 04:28N 43°35' E 010°19'0 0.0
2020-Jan-16 03:58N 43°35' E 010°19'0 0.0
2020-Jan-16 02:58N 43°35' E 010°19'0 0.0
2020-Jan-16 02:28N 43°35' E 010°19'1 1.2
2020-Jan-16 01:30N 43°34' E 010°18'2412.0
2020-Jan-15 23:30N 43°11' E 010°07'8515.0
2020-Jan-15 17:50N 41°47' E 009°55'16412.8
2020-Jan-15 05:01N 39°06' E 009°15'10 6.3
2020-Jan-15 03:25N 39°13' E 009°06'0 0.0
2020-Jan-15 02:19N 39°13' E 009°06'0 0.0
2020-Jan-15 01:22N 39°13' E 009°06'0 0.0
2020-Jan-14 23:49N 39°13' E 009°06'5 2.3
2020-Jan-14 21:30N 39°08' E 009°10'714.8
2020-Jan-14 21:00N 39°04' E 009°18'27313.7
2020-Jan-14 01:00N 43°33' E 010°18'1 0.3
2020-Jan-13 20:30N 43°35' E 010°19'3 1.2
2020-Jan-13 18:00N 43°32' E 010°17'3 3.0
2020-Jan-13 17:00N 43°29' E 010°17'0 0.0
2020-Jan-13 12:00N 43°29' E 010°16'0 0.0
2020-Jan-13 11:00N 43°29' E 010°16'0 0.0
2020-Jan-13 08:00N 43°29' E 010°16'0 0.0
2020-Jan-13 06:30N 43°29' E 010°16'12 7.9
2020-Jan-13 05:00N 43°19' E 010°08'713.3
2020-Jan-13 04:30N 43°12' E 010°06'25112.6
2020-Jan-12 08:33N 39°04' E 009°20'114.4
2020-Jan-12 08:30N 39°04' E 009°20'13 2.4
2020-Jan-12 02:58N 39°13' E 009°06'0 0.0
2020-Jan-12 00:55N 39°13' E 009°06'0 0.2
2020-Jan-11 23:59N 39°12' E 009°06'8 8.4
2020-Jan-11 23:00N 39°07' E 009°14'  
Track history (hours):
 
Tides and Currents Weather Stations Pressure Air Temp Water Temp Dewpoint Dewpoint Depression Visibility Wind Speed Wind Dir Waves Ship Positions

Norse Mersey

Operator: Norse Merchant Ferries

Last reported at 2020-Jan-21 13:00 UTC. Time now 2020-Jan-21 23:09 UTC.
Position N 43°35' E 010°19'.

Length 175 m; draft 5.6 m.

Type: Ship (hazmat cat A). MMSI: 247026000.

Date/timePositionNaut miles runAvg speedWind from/ knotsBaromVisibWave heightAir tempDewpointWater temp
2020-Jan-21 13:00N 43°35' E 010°19'0 0.0
2020-Jan-21 11:30N 43°35' E 010°19'0 0.0
2020-Jan-21 10:30N 43°35' E 010°19'24 3.7
2020-Jan-21 04:00N 43°11' E 010°19'25011.2
2020-Jan-20 05:34N 39°04' E 009°21'113.2
2020-Jan-20 05:30N 39°05' E 009°20'713.2
2020-Jan-20 05:01N 39°08' E 009°12'7 1.9
2020-Jan-20 01:23N 39°13' E 009°06'6 1.3
2020-Jan-19 21:00N 39°08' E 009°11'227 7.8
2020-Jan-18 16:01N 40°49' E 013°36'714.8
2020-Jan-18 15:30N 40°44' E 013°43'714.9
2020-Jan-18 15:00N 40°39' E 013°51'2214.5
2020-Jan-18 13:30N 40°31' E 014°17'19 2.6
2020-Jan-18 06:09N 40°37' E 014°41'215.0
2020-Jan-18 06:00N 40°35' E 014°39'3015.0
2020-Jan-18 04:00N 40°23' E 014°02'23514.2
2020-Jan-17 11:29N 39°07' E 009°14'8 1.2
2020-Jan-17 04:38N 39°13' E 009°06'0 1.6
2020-Jan-17 04:31N 39°12' E 009°06'2 4.7
2020-Jan-17 04:00N 39°10' E 009°07'24213.1
2020-Jan-16 09:30N 43°08' E 010°04'1515.0
2020-Jan-16 08:30N 43°22' E 010°10'14 3.5
2020-Jan-16 04:28N 43°35' E 010°19'0 0.0
2020-Jan-16 03:58N 43°35' E 010°19'0 0.0
2020-Jan-16 02:58N 43°35' E 010°19'0 0.0
2020-Jan-16 02:28N 43°35' E 010°19'1 1.2
2020-Jan-16 01:30N 43°34' E 010°18'2412.0
2020-Jan-15 23:30N 43°11' E 010°07'8515.0
2020-Jan-15 17:50N 41°47' E 009°55'16412.8
2020-Jan-15 05:01N 39°06' E 009°15'10 6.3
2020-Jan-15 03:25N 39°13' E 009°06'0 0.0
2020-Jan-15 02:19N 39°13' E 009°06'0 0.0
2020-Jan-15 01:22N 39°13' E 009°06'0 0.0
2020-Jan-14 23:49N 39°13' E 009°06'5 2.3
2020-Jan-14 21:30N 39°08' E 009°10'714.8
2020-Jan-14 21:00N 39°04' E 009°18'27313.7
2020-Jan-14 01:00N 43°33' E 010°18'1 0.3
2020-Jan-13 20:30N 43°35' E 010°19'3 1.2
2020-Jan-13 18:00N 43°32' E 010°17'3 3.0
2020-Jan-13 17:00N 43°29' E 010°17'0 0.0
2020-Jan-13 12:00N 43°29' E 010°16'0 0.0
2020-Jan-13 11:00N 43°29' E 010°16'0 0.0
2020-Jan-13 08:00N 43°29' E 010°16'0 0.0
2020-Jan-13 06:30N 43°29' E 010°16'12 7.9
2020-Jan-13 05:00N 43°19' E 010°08'713.3
2020-Jan-13 04:30N 43°12' E 010°06'25112.6
2020-Jan-12 08:33N 39°04' E 009°20'114.4
2020-Jan-12 08:30N 39°04' E 009°20'13 2.4
2020-Jan-12 02:58N 39°13' E 009°06'0 0.0
2020-Jan-12 00:55N 39°13' E 009°06'0 0.2
2020-Jan-11 23:59N 39°12' E 009°06'8 8.4
2020-Jan-11 23:00N 39°07' E 009°14'  

Dump ship's entire track history